createdAt,value
2019-05-13T00:00:05.349Z,102097.28
2019-05-13T00:02:40.739Z,102104.03
2019-05-13T00:05:11.659Z,102102.02
2019-05-13T00:07:47.383Z,102099.56
2019-05-13T00:10:17.775Z,102103.09
2019-05-13T00:12:48.169Z,102101.05
2019-05-13T00:15:18.768Z,102097.38
2019-05-13T00:17:49.406Z,102105.11
2019-05-13T00:20:19.798Z,102114.06
2019-05-13T00:22:54.165Z,102109.45
2019-05-13T00:25:25.255Z,102113.47
2019-05-13T00:27:55.520Z,102116.20
2019-05-13T00:30:26.229Z,102115.86
2019-05-13T00:32:58.281Z,102120.39
2019-05-13T00:35:28.971Z,102118.37
2019-05-13T00:37:59.699Z,102118.19
2019-05-13T00:40:33.433Z,102124.67
2019-05-13T00:43:04.149Z,102127.52
2019-05-13T00:45:34.705Z,102128.34
2019-05-13T00:48:05.188Z,102131.73
2019-05-13T00:50:35.568Z,102130.22
2019-05-13T00:53:06.653Z,102129.91
2019-05-13T00:55:37.698Z,102139.17
2019-05-13T00:58:08.324Z,102131.58
2019-05-13T01:00:38.983Z,102135.72
2019-05-13T01:03:09.697Z,102132.41
2019-05-13T01:05:40.292Z,102133.55
2019-05-13T01:08:10.605Z,102131.95
2019-05-13T01:10:40.924Z,102131.64
2019-05-13T01:13:13.176Z,102135.75
2019-05-13T01:15:44.259Z,102132.78
2019-05-13T01:18:15.636Z,102132.94
2019-05-13T01:20:49.859Z,102141.22
2019-05-13T01:23:20.572Z,102138.77
2019-05-13T01:25:51.255Z,102137.80
2019-05-13T01:28:23.911Z,102145.20
2019-05-13T01:30:54.649Z,102142.34
2019-05-13T01:33:26.489Z,102143.22
2019-05-13T01:35:57.234Z,102145.35
2019-05-13T01:38:27.857Z,102148.44
2019-05-13T01:40:58.897Z,102147.07
2019-05-13T01:43:29.557Z,102150.30
2019-05-13T01:46:00.342Z,102153.30
2019-05-13T01:48:33.307Z,102151.46
2019-05-13T01:51:04.089Z,102162.79
2019-05-13T01:53:35.230Z,102163.19
2019-05-13T01:56:05.551Z,102156.91
2019-05-13T01:58:36.179Z,102162.02
2019-05-13T02:01:10.711Z,102163.88
2019-05-13T02:03:41.075Z,102166.13
2019-05-13T02:06:13.958Z,102171.09
2019-05-13T02:08:44.342Z,102175.25
2019-05-13T02:11:14.999Z,102177.30
2019-05-13T02:13:45.639Z,102178.13
2019-05-13T02:16:16.258Z,102181.79
2019-05-13T02:18:46.585Z,102184.16
2019-05-13T02:21:16.863Z,102188.05
2019-05-13T02:23:47.847Z,102181.80
2019-05-13T02:26:18.612Z,102189.07
2019-05-13T02:28:49.204Z,102186.99
2019-05-13T02:31:31.953Z,102188.88
2019-05-13T02:33:53.166Z,102185.42
2019-05-13T02:36:23.739Z,102195.20
2019-05-13T02:38:54.805Z,102183.54
2019-05-13T02:41:25.766Z,102193.80
2019-05-13T02:43:56.684Z,102195.95
2019-05-13T02:46:27.016Z,102194.08
2019-05-13T02:48:57.642Z,102201.58
2019-05-13T02:51:28.248Z,102202.83
2019-05-13T02:53:59.254Z,102201.38
2019-05-13T02:56:32.821Z,102205.70
2019-05-13T02:59:04.042Z,102204.76
2019-05-13T03:01:34.700Z,102205.58
2019-05-13T03:04:05.759Z,102213.59
2019-05-13T03:06:36.373Z,102211.11
2019-05-13T03:09:08.654Z,102211.50
2019-05-13T03:11:41.513Z,102215.63
2019-05-13T03:14:12.819Z,102212.29
2019-05-13T03:16:53.497Z,102216.10
2019-05-13T03:19:23.823Z,102219.04
2019-05-13T03:21:54.813Z,102219.78
2019-05-13T03:24:25.562Z,102221.91
2019-05-13T03:26:56.195Z,102218.96
2019-05-13T03:29:26.825Z,102219.98
2019-05-13T03:31:57.143Z,102217.98
2019-05-13T03:34:28.577Z,102220.09
2019-05-13T03:37:05.473Z,102211.61
2019-05-13T03:39:35.416Z,102215.18
2019-05-13T03:42:06.562Z,102218.28
2019-05-13T03:44:42.576Z,102219.16
2019-05-13T03:47:12.931Z,102223.47
2019-05-13T03:49:44.822Z,102226.73
2019-05-13T03:52:16.052Z,102231.93
2019-05-13T03:54:47.676Z,102233.20
2019-05-13T03:57:18.451Z,102233.00
2019-05-13T03:59:52.560Z,102230.81
2019-05-13T04:02:24.009Z,102230.55
2019-05-13T04:04:58.354Z,102231.96
2019-05-13T04:07:27.018Z,102239.08
2019-05-13T04:09:57.571Z,102239.43
2019-05-13T04:12:28.681Z,102242.42
2019-05-13T04:15:03.277Z,102232.92
2019-05-13T04:17:33.070Z,102225.73
2019-05-13T04:20:03.586Z,102231.84
2019-05-13T04:22:34.030Z,102230.83
2019-05-13T04:25:05.250Z,102225.23
2019-05-13T04:27:36.299Z,102232.62
2019-05-13T04:30:13.399Z,102222.49
2019-05-13T04:32:44.224Z,102223.83
2019-05-13T04:35:14.938Z,102220.72
2019-05-13T04:37:45.573Z,102230.73
2019-05-13T04:40:16.114Z,102232.41
2019-05-13T04:42:46.423Z,102228.23
2019-05-13T04:45:18.215Z,102233.17
2019-05-13T04:47:52.564Z,102229.41
2019-05-13T04:50:22.635Z,102232.93
2019-05-13T04:52:54.176Z,102227.64
2019-05-13T04:55:24.520Z,102234.91
2019-05-13T04:57:55.747Z,102239.24
2019-05-13T05:01:28.302Z,102237.42
2019-05-13T05:04:22.150Z,102238.69
2019-05-13T05:07:03.481Z,102242.66
2019-05-13T05:10:22.080Z,102249.05
2019-05-13T05:13:26.651Z,102243.41
2019-05-13T05:16:28.963Z,102250.37
2019-05-13T05:19:32.366Z,102244.94
2019-05-13T05:22:24.523Z,102244.19
2019-05-13T05:25:13.944Z,102249.23
2019-05-13T05:28:33.803Z,102248.59
2019-05-13T05:31:36.955Z,102254.14
2019-05-13T05:35:26.679Z,102262.94
2019-05-13T05:38:25.246Z,102259.52
2019-05-13T05:40:56.344Z,102257.09
2019-05-13T05:43:31.376Z,102262.09
2019-05-13T05:46:04.255Z,102259.99
2019-05-13T05:48:38.094Z,102263.22
2019-05-13T05:51:13.199Z,102264.99
2019-05-13T05:53:47.315Z,102269.53
2019-05-13T05:56:22.008Z,102273.86
2019-05-13T05:58:54.152Z,102265.82
2019-05-13T06:01:26.227Z,102275.59
2019-05-13T06:03:58.585Z,102277.16
2019-05-13T06:06:33.003Z,102277.11
2019-05-13T06:09:06.784Z,102276.87
2019-05-13T06:11:38.102Z,102279.17
2019-05-13T06:14:11.116Z,102281.49
2019-05-13T06:16:42.534Z,102287.13
2019-05-13T06:19:13.182Z,102283.38
2019-05-13T06:21:43.871Z,102280.19
2019-05-13T06:24:14.204Z,102290.39
2019-05-13T06:26:44.530Z,102292.62
2019-05-13T06:29:15.357Z,102296.48
2019-05-13T06:31:46.214Z,102297.19
2019-05-13T06:34:16.878Z,102298.11
2019-05-13T06:36:48.315Z,102300.98
2019-05-13T06:39:19.127Z,102300.76
2019-05-13T06:41:51.657Z,102308.36
2019-05-13T06:44:22.755Z,102306.89
2019-05-13T06:46:53.486Z,102308.92
2019-05-13T06:49:23.998Z,102310.39
2019-05-13T06:51:54.400Z,102312.69
2019-05-13T06:54:25.198Z,102319.55
2019-05-13T06:56:55.951Z,102308.80
2019-05-13T06:59:34.074Z,102315.97
2019-05-13T07:02:04.590Z,102320.60
2019-05-13T07:04:35.424Z,102309.34
2019-05-13T07:07:13.142Z,102315.98
2019-05-13T07:09:42.675Z,102313.52
2019-05-13T07:12:12.928Z,102309.38
2019-05-13T07:14:55.160Z,102304.94
2019-05-13T07:17:25.215Z,102303.81
2019-05-13T07:19:55.688Z,102308.12
2019-05-13T07:22:26.624Z,102312.38
2019-05-13T07:24:57.354Z,102313.39
2019-05-13T07:27:28.168Z,102314.86
2019-05-13T07:29:58.531Z,102309.36
2019-05-13T07:32:31.488Z,102312.12
2019-05-13T07:35:13.367Z,102305.80
2019-05-13T07:37:44.874Z,102306.45
2019-05-13T07:40:16.126Z,102309.09
2019-05-13T07:42:46.876Z,102300.92
2019-05-13T07:45:21.321Z,102312.63
2019-05-13T07:47:52.241Z,102310.56
2019-05-13T07:50:25.084Z,102303.73
2019-05-13T07:52:55.867Z,102303.72
2019-05-13T07:55:26.378Z,102301.06
2019-05-13T07:57:57.488Z,102301.15
2019-05-13T08:00:27.941Z,102298.87
2019-05-13T08:03:01.017Z,102299.88
2019-05-13T08:05:31.525Z,102299.85
2019-05-13T08:08:02.461Z,102299.45
2019-05-13T08:10:33.651Z,102294.59
2019-05-13T08:13:22.266Z,102299.41
2019-05-13T08:15:54.886Z,102298.91
2019-05-13T08:18:34.096Z,102298.49
2019-05-13T08:21:04.795Z,102293.84
2019-05-13T08:23:35.598Z,102295.70
2019-05-13T08:26:05.980Z,102302.75
2019-05-13T08:28:52.797Z,102304.04
2019-05-13T08:31:09.165Z,102298.64
2019-05-13T08:33:42.300Z,102300.44
2019-05-13T08:36:13.400Z,102299.83
2019-05-13T08:38:43.958Z,102299.05
2019-05-13T08:41:19.002Z,102297.78
2019-05-13T08:44:16.237Z,102292.57
2019-05-13T08:46:58.665Z,102285.13
2019-05-13T08:49:32.517Z,102286.86
2019-05-13T08:52:05.876Z,102289.11
2019-05-13T08:54:36.492Z,102288.56
2019-05-13T08:57:07.397Z,102283.53
2019-05-13T08:59:42.193Z,102291.97
2019-05-13T09:02:11.940Z,102283.78
2019-05-13T09:04:42.650Z,102286.47
2019-05-13T09:07:16.609Z,102280.92
2019-05-13T09:09:47.139Z,102274.88
2019-05-13T09:14:52.608Z,102273.29
2019-05-13T09:17:24.062Z,102269.50
2019-05-13T09:19:57.087Z,102273.38
2019-05-13T09:22:28.717Z,102277.25
2019-05-13T09:25:02.151Z,102271.84
2019-05-13T09:27:35.020Z,102270.28
2019-05-13T09:30:08.438Z,102264.13
2019-05-13T09:32:39.351Z,102269.28
2019-05-13T09:35:12.018Z,102271.72
2019-05-13T09:37:51.657Z,102262.59
2019-05-13T09:40:24.862Z,102265.28
2019-05-13T09:42:55.530Z,102267.60
2019-05-13T09:45:26.846Z,102254.28
2019-05-13T09:48:05.084Z,102263.02
2019-05-13T09:50:36.316Z,102265.06
2019-05-13T09:53:22.315Z,102260.56
2019-05-13T09:55:58.026Z,102246.45
2019-05-13T09:58:32.185Z,102258.89
2019-05-13T10:01:02.996Z,102250.64
2019-05-13T10:03:33.793Z,102255.33
2019-05-13T10:06:04.886Z,102250.15
2019-05-13T10:08:35.230Z,102253.94
2019-05-13T10:11:15.672Z,102242.77
2019-05-13T10:13:46.266Z,102250.45
2019-05-13T10:16:16.685Z,102253.61
2019-05-13T10:18:48.011Z,102256.05
2019-05-13T10:21:21.672Z,102253.41
2019-05-13T10:23:58.806Z,102256.30
2019-05-13T10:26:28.076Z,102249.33
2019-05-13T10:29:01.732Z,102255.14
2019-05-13T10:31:37.631Z,102243.77
2019-05-13T10:34:08.700Z,102251.93
2019-05-13T10:36:41.545Z,102246.36
2019-05-13T10:39:14.032Z,102247.92
2019-05-13T10:41:45.003Z,102242.97
2019-05-13T10:44:16.405Z,102242.57
2019-05-13T10:46:52.062Z,102235.38
2019-05-13T10:49:22.971Z,102247.35
2019-05-13T10:51:53.509Z,102239.82
2019-05-13T10:54:23.970Z,102229.71
2019-05-13T10:56:59.425Z,102230.77
2019-05-13T10:59:27.084Z,102241.72
2019-05-13T11:02:02.708Z,102237.54
2019-05-13T11:04:36.440Z,102240.06
2019-05-13T11:07:07.391Z,102241.75
2019-05-13T11:09:41.797Z,102236.02
2019-05-13T11:12:13.296Z,102235.69
2019-05-13T11:14:51.495Z,102225.70
2019-05-13T11:17:31.093Z,102219.21
2019-05-13T11:20:03.110Z,102232.52
2019-05-13T11:22:32.998Z,102225.44
2019-05-13T11:25:03.358Z,102221.75
2019-05-13T11:27:34.934Z,102225.36
2019-05-13T11:30:07.281Z,102221.91
2019-05-13T11:32:38.345Z,102217.85
2019-05-13T11:35:12.359Z,102222.22
2019-05-13T11:37:43.572Z,102213.66
2019-05-13T11:40:14.475Z,102208.16
2019-05-13T11:42:45.270Z,102214.09
2019-05-13T11:45:16.289Z,102212.09
2019-05-13T11:47:46.690Z,102199.30
2019-05-13T11:50:17.536Z,102195.57
2019-05-13T11:52:47.891Z,102190.30
2019-05-13T11:55:18.740Z,102191.70
2019-05-13T11:57:49.333Z,102181.65
2019-05-13T12:00:53.209Z,102180.70
2019-05-13T12:03:23.527Z,102176.19
2019-05-13T12:05:54.190Z,102167.75
2019-05-13T12:08:25.392Z,102164.75
2019-05-13T12:10:55.715Z,102165.48
2019-05-13T12:13:26.734Z,102163.14
2019-05-13T12:15:57.709Z,102153.13
2019-05-13T12:18:31.214Z,102155.20
2019-05-13T12:21:03.327Z,102157.84
2019-05-13T12:23:34.388Z,102163.88
2019-05-13T12:26:06.349Z,102163.00
2019-05-13T12:28:41.533Z,102160.34
2019-05-13T12:31:13.427Z,102160.80
2019-05-13T12:33:44.290Z,102149.43
2019-05-13T12:36:18.566Z,102143.45
2019-05-13T12:38:52.940Z,102138.12
2019-05-13T12:41:23.042Z,102133.59
2019-05-13T12:43:54.260Z,102130.95
2019-05-13T12:46:25.141Z,102127.95
2019-05-13T12:48:55.665Z,102121.60
2019-05-13T12:51:26.313Z,102124.96
2019-05-13T12:53:56.762Z,102113.67
2019-05-13T12:56:32.843Z,102114.34
2019-05-13T12:59:02.904Z,102115.06
2019-05-13T13:01:33.620Z,102109.28
2019-05-13T13:04:04.424Z,102105.95
2019-05-13T13:06:40.698Z,102101.05
2019-05-13T13:09:12.434Z,102095.15
2019-05-13T13:11:43.467Z,102089.04
2019-05-13T13:14:16.538Z,102075.05
2019-05-13T13:16:46.766Z,102076.98
2019-05-13T13:19:17.438Z,102096.86
2019-05-13T13:21:47.743Z,102090.77
2019-05-13T13:24:18.046Z,102082.67
2019-05-13T13:26:48.369Z,102091.80
2019-05-13T13:29:21.993Z,102076.28
2019-05-13T13:31:55.664Z,102071.85
2019-05-13T13:34:26.402Z,102064.97
2019-05-13T13:36:57.143Z,102064.80
2019-05-13T13:39:27.950Z,102069.33
2019-05-13T13:42:04.981Z,102067.64
2019-05-13T13:44:35.001Z,102070.64
2019-05-13T13:47:16.994Z,102063.05
2019-05-13T13:49:49.735Z,102059.82
2019-05-13T13:52:22.907Z,102059.88
2019-05-13T13:55:09.151Z,102062.75
2019-05-13T13:57:44.822Z,102068.55
2019-05-13T14:00:32.918Z,102064.45
2019-05-13T14:02:53.723Z,102057.02
2019-05-13T14:05:42.577Z,102057.60
2019-05-13T14:07:04.309Z,102274.11
2019-05-13T14:08:15.377Z,102059.97
2019-05-13T14:10:47.174Z,102048.09
2019-05-13T14:13:28.048Z,102050.66
2019-05-13T14:16:01.876Z,102063.25
2019-05-13T14:18:36.954Z,102056.20
2019-05-13T14:21:08.259Z,102055.16
2019-05-13T14:23:47.452Z,102053.47
2019-05-13T14:26:22.222Z,102049.14
2019-05-13T14:29:02.667Z,102048.41
2019-05-13T14:31:41.397Z,102045.59
2019-05-13T14:34:12.929Z,102045.76
2019-05-13T14:36:48.125Z,102038.66
2019-05-13T14:39:24.552Z,102029.62
2019-05-13T14:42:01.543Z,102031.95
2019-05-13T14:44:41.390Z,102030.89
2019-05-13T14:47:12.599Z,102025.37
2019-05-13T14:49:43.367Z,102027.88
2019-05-13T14:52:13.832Z,102028.50
2019-05-13T14:54:44.443Z,102028.94
2019-05-13T14:57:15.218Z,102019.06
2019-05-13T14:59:47.996Z,102023.95
2019-05-13T15:02:25.846Z,102014.78
2019-05-13T15:04:57.494Z,102013.78
2019-05-13T15:07:31.692Z,102017.98
2019-05-13T15:10:12.291Z,102018.78
2019-05-13T15:12:45.999Z,102014.06
2019-05-13T15:15:22.419Z,102022.89
2019-05-13T15:17:54.735Z,102014.72
2019-05-13T15:20:25.144Z,102015.41
2019-05-13T15:22:59.268Z,102022.05
2019-05-13T15:25:35.610Z,102015.95
2019-05-13T15:28:07.369Z,102016.01
2019-05-13T15:30:42.247Z,102020.40
2019-05-13T15:33:25.969Z,102019.36
2019-05-13T15:36:16.067Z,102018.77
2019-05-13T15:38:51.525Z,102006.97
2019-05-13T15:41:41.767Z,102004.14
2019-05-13T15:44:18.617Z,102003.45
2019-05-13T15:46:49.066Z,101999.84
2019-05-13T15:49:27.506Z,102000.42
2019-05-13T15:52:01.716Z,102000.42
2019-05-13T15:54:32.723Z,102000.84
2019-05-13T15:57:03.969Z,102002.16
2019-05-13T15:59:34.555Z,101993.83
2019-05-13T16:02:08.489Z,102001.68
2019-05-13T16:04:49.918Z,102004.45
2019-05-13T16:07:12.547Z,102002.84
2019-05-13T16:09:43.206Z,101997.14
2019-05-13T16:12:14.202Z,101999.34
2019-05-13T16:14:44.856Z,101992.53
2019-05-13T16:17:15.938Z,101995.14
2019-05-13T16:19:47.111Z,101990.94
2019-05-13T16:22:19.634Z,101998.73
2019-05-13T16:24:52.118Z,101997.55
2019-05-13T16:27:22.401Z,101996.89
2019-05-13T16:29:53.347Z,101988.31
2019-05-13T16:32:24.138Z,101985.35
2019-05-13T16:34:54.849Z,101990.09
2019-05-13T16:37:26.109Z,101988.35
2019-05-13T16:39:56.834Z,101985.20
2019-05-13T16:42:31.706Z,101983.93
2019-05-13T16:45:14.838Z,101981.80
2019-05-13T16:47:37.177Z,101980.78
2019-05-13T16:50:08.776Z,101991.89
2019-05-13T16:52:41.645Z,101993.10
2019-05-13T16:55:13.999Z,101990.97
2019-05-13T16:57:44.367Z,101992.05
2019-05-13T17:00:18.174Z,101987.11
2019-05-13T17:02:49.652Z,101991.03
2019-05-13T17:05:21.558Z,101985.20
2019-05-13T17:07:56.585Z,101991.09
2019-05-13T17:10:31.549Z,101991.76
2019-05-13T17:13:04.041Z,101988.09
2019-05-13T17:15:46.314Z,101982.43
2019-05-13T17:18:26.851Z,101981.98
2019-05-13T17:21:01.431Z,101985.86
2019-05-13T17:23:36.374Z,101984.18
2019-05-13T17:26:07.294Z,101981.70
2019-05-13T17:28:38.006Z,101985.46
2019-05-13T17:31:08.788Z,101984.73
2019-05-13T17:33:42.783Z,101985.11
2019-05-13T17:36:15.599Z,101983.42
2019-05-13T17:38:52.127Z,101988.12
2019-05-13T17:41:32.046Z,101978.63
2019-05-13T17:44:15.201Z,101986.25
2019-05-13T17:46:48.128Z,101979.33
2019-05-13T17:49:18.702Z,101981.64
2019-05-13T17:51:51.679Z,101981.52
2019-05-13T17:54:22.811Z,101982.78
2019-05-13T17:56:54.123Z,101986.51
2019-05-13T17:59:41.953Z,101989.31
2019-05-13T18:02:27.630Z,101987.53
2019-05-13T18:05:01.991Z,101989.37
2019-05-13T18:07:47.828Z,101991.00
2019-05-13T18:10:37.231Z,101985.97
2019-05-13T18:13:16.377Z,101990.59
2019-05-13T18:15:56.783Z,101988.87
2019-05-13T18:18:43.114Z,101989.83
2019-05-13T18:21:11.815Z,101990.30
2019-05-13T18:23:44.615Z,101982.72
2019-05-13T18:26:16.353Z,101983.17
2019-05-13T18:29:02.388Z,101987.28
2019-05-13T18:31:42.082Z,101987.69
2019-05-13T18:34:21.513Z,101981.98
2019-05-13T18:37:02.426Z,101974.72
2019-05-13T18:39:33.744Z,101974.32
2019-05-13T18:42:18.642Z,101974.41
2019-05-13T18:44:56.122Z,101969.07
2019-05-13T18:47:28.010Z,101974.27
2019-05-13T18:50:02.350Z,101970.84
2019-05-13T18:52:35.017Z,101963.85
2019-05-13T18:55:07.877Z,101964.95
2019-05-13T18:57:38.581Z,101965.78
2019-05-13T19:00:11.105Z,101969.95
2019-05-13T19:02:41.867Z,101964.59
2019-05-13T19:05:12.706Z,101967.66
2019-05-13T19:07:46.409Z,101973.34
2019-05-13T19:10:22.002Z,101969.16
2019-05-13T19:12:57.926Z,101975.60
2019-05-13T19:15:32.986Z,101978.28
2019-05-13T19:18:04.116Z,101976.00
2019-05-13T19:20:35.172Z,101976.66
2019-05-13T19:23:11.955Z,101982.48
2019-05-13T19:25:42.681Z,101986.16
2019-05-13T19:28:15.088Z,101984.83
2019-05-13T19:31:02.423Z,101981.41
2019-05-13T19:33:43.233Z,101985.48
2019-05-13T19:36:20.996Z,101981.66
2019-05-13T19:38:55.803Z,101983.50
2019-05-13T19:41:31.501Z,101984.48
2019-05-13T19:44:06.424Z,101977.58
2019-05-13T19:46:53.640Z,101974.46
2019-05-13T19:49:32.105Z,101975.76
2019-05-13T19:51:56.719Z,101979.60
2019-05-13T19:54:31.281Z,101983.84
2019-05-13T19:57:08.130Z,101980.45
2019-05-13T19:59:42.496Z,101980.88
2019-05-13T20:02:17.429Z,101983.24
2019-05-13T20:04:48.406Z,101973.93
2019-05-13T20:07:19.152Z,101979.43
2019-05-13T20:09:52.020Z,101978.20
2019-05-13T20:12:22.486Z,101974.56
2019-05-13T20:15:03.342Z,101980.14
2019-05-13T20:17:41.600Z,101975.55
2019-05-13T20:20:31.745Z,101972.55
2019-05-13T20:23:05.226Z,101977.78
2019-05-13T20:25:41.736Z,101973.80
2019-05-13T20:28:42.778Z,101976.50
2019-05-13T20:31:17.829Z,101971.99
2019-05-13T20:33:51.775Z,101976.49
2019-05-13T20:36:25.145Z,101976.20
2019-05-13T20:39:07.743Z,101970.09
2019-05-13T20:41:41.470Z,101975.11
2019-05-13T20:44:12.442Z,101972.27
2019-05-13T20:46:47.204Z,101977.25
2019-05-13T20:49:22.751Z,101981.30
2019-05-13T20:51:53.765Z,101980.36
2019-05-13T20:54:24.671Z,101976.31
2019-05-13T20:56:58.890Z,101988.58
2019-05-13T20:59:32.300Z,101989.70
2019-05-13T21:02:14.796Z,101986.52
2019-05-13T21:04:57.147Z,101986.48
2019-05-13T21:07:29.437Z,101986.86
2019-05-13T21:10:09.101Z,101981.30
2019-05-13T21:12:41.951Z,101985.45
2019-05-13T21:15:13.202Z,101981.34
2019-05-13T21:17:55.566Z,101981.95
2019-05-13T21:20:41.013Z,101984.92
2019-05-13T21:23:11.413Z,101984.70
2019-05-13T21:25:46.114Z,101979.95
2019-05-13T21:28:17.877Z,101985.64
2019-05-13T21:30:52.768Z,101990.33
2019-05-13T21:33:24.276Z,101989.65
2019-05-13T21:35:57.021Z,101986.58
2019-05-13T21:38:32.238Z,101979.27
2019-05-13T21:41:11.933Z,101986.02
2019-05-13T21:44:15.662Z,101986.20
2019-05-13T21:47:21.938Z,101985.05
2019-05-13T21:50:37.355Z,101983.05
2019-05-13T21:53:01.944Z,101982.56
2019-05-13T21:56:05.701Z,101979.00
2019-05-13T21:58:36.918Z,101981.72
2019-05-13T22:01:07.583Z,101982.67
2019-05-13T22:03:38.184Z,101978.66
2019-05-13T22:06:10.967Z,101982.22
2019-05-13T22:08:42.289Z,101977.78
2019-05-13T22:11:31.719Z,101976.70
2019-05-13T22:14:19.458Z,101977.92
2019-05-13T22:16:56.923Z,101977.38
2019-05-13T22:20:07.187Z,101976.89
2019-05-13T22:23:23.271Z,101971.59
2019-05-13T22:27:21.778Z,101976.33
2019-05-13T22:30:40.738Z,101973.95
2019-05-13T22:34:01.589Z,101977.98
2019-05-13T22:37:41.197Z,101982.23
2019-05-13T22:40:17.157Z,101981.34
2019-05-13T22:42:57.259Z,101978.02
2019-05-13T22:45:41.919Z,101981.31
2019-05-13T22:48:15.862Z,101981.96
2019-05-13T22:50:53.867Z,101988.42
2019-05-13T22:53:24.564Z,101985.98
2019-05-13T22:55:55.006Z,101984.73
2019-05-13T22:58:31.786Z,101986.22
2019-05-13T23:01:13.614Z,101982.50
2019-05-13T23:03:46.612Z,101977.77
2019-05-13T23:06:24.008Z,101981.63
2019-05-13T23:09:02.029Z,101974.84
2019-05-13T23:11:44.023Z,101974.84
2019-05-13T23:14:30.049Z,101973.00
2019-05-13T23:17:07.726Z,101966.20
2019-05-13T23:19:51.981Z,101975.48
2019-05-13T23:22:25.702Z,101972.22
2019-05-13T23:25:03.735Z,101970.23
2019-05-13T23:27:41.567Z,101968.80
2019-05-13T23:30:15.745Z,101962.33
2019-05-13T23:32:48.427Z,101960.45
2019-05-13T23:35:21.729Z,101954.62
2019-05-13T23:37:54.070Z,101960.12
2019-05-13T23:40:24.563Z,101957.84
2019-05-13T23:42:54.785Z,101956.94
2019-05-13T23:45:26.535Z,101958.28
2019-05-13T23:47:56.911Z,101957.27
2019-05-13T23:50:32.045Z,101965.40
2019-05-13T23:53:00.361Z,101959.17
2019-05-13T23:55:32.213Z,101961.04
2019-05-13T23:58:03.153Z,101957.83
